Time;durP1;ratioP1;P1;durP2;ratioP2;P2;SDS_P1;SDS_P2;PMS_P1;PMS_P2;Temp;Humidity;BMP_temperature;BMP_pressure;BME280_temperature;BME280_humidity;BME280_pressure;Samples;Min_cycle;Max_cycle;Signal;HPM_P1;HPM_P2
2022/09/13 00:01:29;;;;;;;2.88;2.20;;;;;;;;;;5026427;28;20037;-55
2022/09/13 00:03:55;;;;;;;3.45;2.10;;;;;;;;;;5027406;28;20057;-55
2022/09/13 00:06:21;;;;;;;3.72;2.30;;;;;;;;;;5026721;28;20029;-56
2022/09/13 00:08:47;;;;;;;2.92;2.00;;;;;;;;;;5027305;28;20056;-55
2022/09/13 00:11:16;;;;;;;3.17;2.00;;;;;;;;;;5028370;28;20080;-55
2022/09/13 00:13:42;;;;;;;;;;;;;;;;;;5026631;28;20060;-56
2022/09/13 00:16:14;;;;;;;2.10;1.73;;;;;;;;;;5026786;28;19979;-55
2022/09/13 00:18:40;;;;;;;3.15;2.25;;;;;;;;;;5027927;28;20402;-56
2022/09/13 00:21:15;;;;;;;2.80;1.88;;;;;;;;;;5026878;28;20495;-56
2022/09/13 00:23:45;;;;;;;4.38;2.10;;;;;;;;;;5027316;28;20034;-55
2022/09/13 00:26:16;;;;;;;5.53;2.75;;;;;;;;;;5027542;28;20036;-55
2022/09/13 00:28:44;;;;;;;4.15;2.22;;;;;;;;;;5027732;28;20091;-55
2022/09/13 00:31:10;;;;;;;2.40;2.10;;;;;;;;;;5027610;28;20087;-56
2022/09/13 00:33:36;;;;;;;2.72;2.15;;;;;;;;;;5027099;28;20029;-56
2022/09/13 00:36:07;;;;;;;4.53;2.30;;;;;;;;;;5027207;28;20497;-55
2022/09/13 00:38:37;;;;;;;5.57;3.35;;;;;;;;;;5027349;28;20361;-55
2022/09/13 00:41:06;;;;;;;3.85;2.35;;;;;;;;;;5029158;28;20510;-56
2022/09/13 00:43:44;;;;;;;;;;;;;;;;;;5028002;28;20095;-56
2022/09/13 00:46:15;;;;;;;2.63;1.92;;;;;;;;;;5024014;28;19917;-56
2022/09/13 00:48:41;;;;;;;2.67;1.90;;;;;;;;;;5025867;28;20489;-56
2022/09/13 00:51:09;;;;;;;2.58;2.22;;;;;;;;;;5027707;28;20037;-55
2022/09/13 00:53:39;;;;;;;2.00;1.80;;;;;;;;;;5024966;28;20028;-55
2022/09/13 00:56:10;;;;;;;4.95;1.63;;;;;;;;;;5027374;28;20025;-55
2022/09/13 00:58:42;;;;;;;1.70;1.60;;;;;;;;;;5026891;28;20048;-55
2022/09/13 01:01:10;;;;;;;2.17;1.80;;;;;;;;;;5030000;28;20526;-55
2022/09/13 01:03:37;;;;;;;1.83;1.55;;;;;;;;;;5026504;28;20033;-55
2022/09/13 01:06:17;;;;;;;2.80;1.90;;;;;;;;;;5026626;28;20037;-55
2022/09/13 01:08:47;;;;;;;2.35;1.80;;;;;;;;;;5027009;28;20108;-55
2022/09/13 01:11:20;;;;;;;2.45;1.90;;;;;;;;;;5030351;28;20041;-55
2022/09/13 01:13:46;;;;;;;1.83;1.70;;;;;;;;;;5028100;28;20033;-55
2022/09/13 01:16:12;;;;;;;4.18;1.80;;;;;;;;;;5032895;28;20032;-55
2022/09/13 01:18:37;;;;;;;2.97;1.77;;;;;;;;;;5030838;28;20034;-55
2022/09/13 01:21:18;;;;;;;2.10;1.90;;;;;;;;;;5030772;28;20026;-55
2022/09/13 01:24:11;;;;;;;2.58;1.88;;;;;;;;;;5031251;28;20060;-55
2022/09/13 01:27:15;;;;;;;3.45;1.92;;;;;;;;;;5027267;28;20117;-55
2022/09/13 01:30:02;;;;;;;6.57;2.40;;;;;;;;;;5018302;28;20034;-55
2022/09/13 01:32:36;;;;;;;2.17;1.90;;;;;;;;;;5029843;28;20095;-55
2022/09/13 01:35:39;;;;;;;2.22;1.92;;;;;;;;;;5029781;28;20033;-56
2022/09/13 01:38:22;;;;;;;4.88;1.73;;;;;;;;;;5031393;28;20435;-55
2022/09/13 01:41:09;;;;;;;2.35;1.70;;;;;;;;;;5030647;28;20030;-55
2022/09/13 01:43:41;;;;;;;2.38;1.67;;;;;;;;;;5027406;28;20047;-55
2022/09/13 01:46:27;;;;;;;1.95;1.50;;;;;;;;;;5026570;28;20033;-56
2022/09/13 01:48:59;;;;;;;2.78;1.60;;;;;;;;;;5029127;28;20032;-56
2022/09/13 01:51:32;;;;;;;2.47;1.80;;;;;;;;;;5029367;28;20115;-55
2022/09/13 01:54:06;;;;;;;2.88;1.90;;;;;;;;;;5030568;28;20068;-55
2022/09/13 01:56:52;;;;;;;2.33;1.80;;;;;;;;;;5029841;28;20033;-55
2022/09/13 01:59:36;;;;;;;2.45;1.70;;;;;;;;;;5029078;28;20113;-55
2022/09/13 02:02:11;;;;;;;2.65;1.90;;;;;;;;;;5024894;28;20090;-55
2022/09/13 02:04:41;;;;;;;3.58;2.10;;;;;;;;;;5029244;28;20051;-55
2022/09/13 02:07:16;;;;;;;4.03;2.10;;;;;;;;;;5030611;28;20037;-55
2022/09/13 02:09:47;;;;;;;3.15;2.70;;;;;;;;;;5028716;28;20395;-55
2022/09/13 02:12:17;;;;;;;5.22;3.28;;;;;;;;;;5032813;28;20027;-55
2022/09/13 02:14:47;;;;;;;5.45;2.90;;;;;;;;;;5030940;28;20087;-55
2022/09/13 02:17:15;;;;;;;;;;;;;;;;;;5028795;28;20029;-55
2022/09/13 02:19:49;;;;;;;5.82;3.28;;;;;;;;;;5029790;28;19920;-55
2022/09/13 02:22:18;;;;;;;5.88;3.10;;;;;;;;;;5022330;28;20022;-55
2022/09/13 02:24:46;;;;;;;;;;;;;;;;;;5030479;28;20033;-55
2022/09/13 02:27:17;;;;;;;6.32;2.72;;;;;;;;;;5030063;28;19912;-55
2022/09/13 02:29:46;;;;;;;4.95;2.92;;;;;;;;;;5031001;28;20033;-55
2022/09/13 02:32:21;;;;;;;5.97;2.80;;;;;;;;;;5028855;28;20430;-55
2022/09/13 02:35:00;;;;;;;3.90;2.67;;;;;;;;;;5028784;28;20048;-55
2022/09/13 02:37:28;;;;;;;3.67;2.78;;;;;;;;;;5028522;28;20398;-55
2022/09/13 02:40:01;;;;;;;5.13;3.00;;;;;;;;;;5029086;28;20487;-55
2022/09/13 02:43:13;;;;;;;4.72;2.78;;;;;;;;;;5028010;28;20407;-55
2022/09/13 02:45:50;;;;;;;4.47;2.83;;;;;;;;;;5028107;28;20033;-55
2022/09/13 02:48:42;;;;;;;6.47;3.58;;;;;;;;;;5029154;28;20048;-55
2022/09/13 02:51:57;;;;;;;9.63;2.78;;;;;;;;;;5029230;28;20147;-56
2022/09/13 02:54:51;;;;;;;3.75;3.20;;;;;;;;;;4954660;28;20081;-55
2022/09/13 02:57:31;;;;;;;6.43;2.70;;;;;;;;;;5030542;28;20045;-55
2022/09/13 02:59:57;;;;;;;5.90;2.90;;;;;;;;;;5028703;28;20303;-55
2022/09/13 03:02:27;;;;;;;3.53;2.47;;;;;;;;;;5028070;28;20053;-55
2022/09/13 03:04:52;;;;;;;3.33;2.60;;;;;;;;;;5028695;28;20029;-55
2022/09/13 03:07:18;;;;;;;4.10;2.50;;;;;;;;;;5027579;28;20406;-55
2022/09/13 03:10:06;;;;;;;5.50;2.85;;;;;;;;;;5029178;28;20479;-56
2022/09/13 03:13:01;;;;;;;4.38;2.47;;;;;;;;;;5027111;28;20108;-56
2022/09/13 03:15:36;;;;;;;4.47;2.70;;;;;;;;;;5027346;28;20044;-56
2022/09/13 03:18:18;;;;;;;3.35;2.47;;;;;;;;;;5025191;28;20491;-56
2022/09/13 03:21:06;;;;;;;3.35;2.20;;;;;;;;;;5025762;28;20061;-56
2022/09/13 03:23:50;;;;;;;3.28;2.65;;;;;;;;;;5027943;28;20072;-55
2022/09/13 03:26:40;;;;;;;3.47;2.40;;;;;;;;;;5026676;28;20033;-56
2022/09/13 03:29:32;;;;;;;3.05;2.50;;;;;;;;;;5027967;28;20029;-57
2022/09/13 03:32:15;;;;;;;3.03;2.40;;;;;;;;;;5026613;28;20022;-57
2022/09/13 03:34:52;;;;;;;3.45;2.28;;;;;;;;;;5028208;28;20052;-57
2022/09/13 03:37:23;;;;;;;4.28;2.28;;;;;;;;;;5029719;28;20503;-57
2022/09/13 03:39:55;;;;;;;2.65;2.13;;;;;;;;;;5027832;28;20025;-56
2022/09/13 03:42:31;;;;;;;3.85;2.28;;;;;;;;;;5027454;28;20026;-56
2022/09/13 03:44:58;;;;;;;4.05;2.22;;;;;;;;;;5026208;28;20136;-55
2022/09/13 03:47:26;;;;;;;3.13;2.42;;;;;;;;;;5028667;28;20471;-56
2022/09/13 03:49:52;;;;;;;2.60;2.30;;;;;;;;;;5026597;28;20108;-55
2022/09/13 03:52:18;;;;;;;5.10;2.67;;;;;;;;;;5026893;28;20026;-55
2022/09/13 03:54:44;;;;;;;3.10;2.42;;;;;;;;;;5028319;28;20495;-55
2022/09/13 03:57:20;;;;;;;2.88;2.10;;;;;;;;;;5026808;28;20025;-55
2022/09/13 03:59:48;;;;;;;5.72;2.40;;;;;;;;;;5026249;28;20491;-55
2022/09/13 04:02:15;;;;;;;5.35;2.95;;;;;;;;;;5027243;28;20021;-55
2022/09/13 04:04:42;;;;;;;5.80;3.50;;;;;;;;;;5027650;28;20499;-56
2022/09/13 04:07:12;;;;;;;3.83;2.67;;;;;;;;;;5027131;28;20033;-56
2022/09/13 04:09:40;;;;;;;3.53;2.70;;;;;;;;;;5029965;28;20495;-56
2022/09/13 04:12:07;;;;;;;7.93;4.25;;;;;;;;;;5027595;28;20071;-55
2022/09/13 04:14:32;;;;;;;4.50;3.17;;;;;;;;;;5029244;28;20116;-55
2022/09/13 04:16:57;;;;;;;3.85;3.10;;;;;;;;;;5026167;28;20462;-55
2022/09/13 04:19:24;;;;;;;3.97;3.40;;;;;;;;;;5027728;28;20463;-55
2022/09/13 04:21:51;;;;;;;2.97;2.60;;;;;;;;;;5026216;28;20533;-56
2022/09/13 04:24:18;;;;;;;5.07;2.85;;;;;;;;;;5030240;28;20045;-55
2022/09/13 04:26:47;;;;;;;4.20;2.90;;;;;;;;;;5027129;28;20507;-56
2022/09/13 04:29:12;;;;;;;5.88;2.88;;;;;;;;;;5029553;28;20033;-56
2022/09/13 04:31:38;;;;;;;2.80;2.50;;;;;;;;;;5028898;28;20110;-55
2022/09/13 04:34:05;;;;;;;5.68;2.55;;;;;;;;;;5031002;28;20025;-51
2022/09/13 04:36:31;;;;;;;4.25;2.55;;;;;;;;;;5031350;28;20449;-58
2022/09/13 04:38:57;;;;;;;4.10;2.90;;;;;;;;;;5028563;28;20026;-58
2022/09/13 04:41:22;;;;;;;6.60;2.88;;;;;;;;;;5028603;28;20036;-57
2022/09/13 04:43:49;;;;;;;7.20;3.58;;;;;;;;;;5028080;28;20231;-57
2022/09/13 04:46:15;;;;;;;4.22;2.90;;;;;;;;;;5031868;28;20106;-60
2022/09/13 04:48:40;;;;;;;3.97;2.78;;;;;;;;;;5031534;28;20501;-58
2022/09/13 04:51:05;;;;;;;4.35;2.65;;;;;;;;;;5030679;28;20021;-57
2022/09/13 04:53:31;;;;;;;5.38;2.70;;;;;;;;;;5030559;28;20065;-58
2022/09/13 04:56:01;;;;;;;4.75;2.72;;;;;;;;;;5035935;28;20033;-58
2022/09/13 04:58:26;;;;;;;;;;;;;;;;;;5033211;28;20063;-58
2022/09/13 05:00:55;;;;;;;4.13;2.53;;;;;;;;;;5032297;28;19917;-58
2022/09/13 05:03:23;;;;;;;4.35;2.67;;;;;;;;;;5030243;28;20035;-58
2022/09/13 05:05:49;;;;;;;5.47;3.20;;;;;;;;;;5030730;28;20047;-58
2022/09/13 05:08:14;;;;;;;4.30;2.78;;;;;;;;;;5032726;28;20053;-58
2022/09/13 05:10:39;;;;;;;5.07;3.65;;;;;;;;;;5033156;28;20052;-58
2022/09/13 05:13:05;;;;;;;5.28;3.30;;;;;;;;;;5030979;28;20021;-58
2022/09/13 05:15:30;;;;;;;3.15;2.85;;;;;;;;;;5031941;28;20040;-58
2022/09/13 05:17:56;;;;;;;5.65;2.78;;;;;;;;;;5030962;28;20444;-49
2022/09/13 05:20:21;;;;;;;4.05;2.80;;;;;;;;;;5031045;28;20707;-53
2022/09/13 05:22:46;;;;;;;6.28;2.80;;;;;;;;;;5030124;28;20108;-52
2022/09/13 05:25:12;;;;;;;3.97;2.30;;;;;;;;;;5031038;28;20514;-58
2022/09/13 05:27:38;;;;;;;5.80;2.80;;;;;;;;;;5030875;28;20059;-59
2022/09/13 05:30:04;;;;;;;3.50;2.72;;;;;;;;;;5031189;28;20430;-58
2022/09/13 05:32:30;;;;;;;4.38;3.05;;;;;;;;;;5029004;28;20460;-58
2022/09/13 05:34:56;;;;;;;4.53;2.80;;;;;;;;;;5032420;28;20034;-58
2022/09/13 05:37:21;;;;;;;3.95;3.20;;;;;;;;;;5030877;28;20033;-57
2022/09/13 05:39:47;;;;;;;3.88;3.08;;;;;;;;;;5031228;28;20022;-57
2022/09/13 05:42:12;;;;;;;8.30;3.45;;;;;;;;;;5031193;28;20184;-58
2022/09/13 05:44:38;;;;;;;5.32;3.40;;;;;;;;;;5030170;28;20140;-58
2022/09/13 05:47:04;;;;;;;5.40;3.63;;;;;;;;;;5030782;28;20029;-57
2022/09/13 05:49:29;;;;;;;5.68;3.45;;;;;;;;;;5030924;28;20143;-57
2022/09/13 05:51:55;;;;;;;7.82;5.00;;;;;;;;;;5029693;28;20111;-57
2022/09/13 05:54:20;;;;;;;6.13;4.80;;;;;;;;;;5030365;28;20372;-57
2022/09/13 05:56:45;;;;;;;6.72;3.83;;;;;;;;;;5029632;28;20102;-57
2022/09/13 05:59:13;;;;;;;7.68;3.67;;;;;;;;;;5030365;28;20036;-57
2022/09/13 06:01:38;;;;;;;4.22;3.17;;;;;;;;;;5028987;28;20514;-58
2022/09/13 06:04:04;;;;;;;5.55;3.65;;;;;;;;;;5031041;28;20092;-57
2022/09/13 06:06:29;;;;;;;4.60;3.20;;;;;;;;;;5030352;28;20148;-57
2022/09/13 06:08:56;;;;;;;6.57;3.72;;;;;;;;;;5031023;28;20021;-57
2022/09/13 06:11:23;;;;;;;5.07;3.40;;;;;;;;;;5030585;28;20029;-58
2022/09/13 06:13:49;;;;;;;5.63;3.70;;;;;;;;;;5030558;28;20479;-57
2022/09/13 06:16:16;;;;;;;4.72;3.10;;;;;;;;;;5030654;28;20037;-57
2022/09/13 06:18:41;;;;;;;8.25;3.70;;;;;;;;;;5030622;28;20041;-57
2022/09/13 06:21:18;;;;;;;5.35;3.55;;;;;;;;;;5031821;28;20021;-57
2022/09/13 06:23:44;;;;;;;5.53;4.20;;;;;;;;;;5030365;28;20410;-59
2022/09/13 06:26:12;;;;;;;6.45;3.67;;;;;;;;;;5030204;28;20486;-60
2022/09/13 06:28:38;;;;;;;4.75;2.97;;;;;;;;;;5031046;28;20139;-57
2022/09/13 06:31:04;;;;;;;6.40;3.67;;;;;;;;;;5030820;28;20076;-57
2022/09/13 06:33:31;;;;;;;5.13;3.20;;;;;;;;;;5030913;28;20072;-57
2022/09/13 06:36:00;;;;;;;4.68;2.92;;;;;;;;;;5028479;28;20048;-58
2022/09/13 06:38:25;;;;;;;5.03;3.60;;;;;;;;;;5030489;28;20029;-58
2022/09/13 06:41:11;;;;;;;5.20;3.45;;;;;;;;;;5030882;28;20721;-58
2022/09/13 06:43:37;;;;;;;5.85;3.65;;;;;;;;;;5030000;28;20491;-59
2022/09/13 06:46:09;;;;;;;5.03;3.13;;;;;;;;;;5031040;28;20048;-57
2022/09/13 06:48:41;;;;;;;6.20;3.10;;;;;;;;;;5033817;28;20033;-58
2022/09/13 06:51:09;;;;;;;4.75;3.03;;;;;;;;;;5024696;28;20025;-58
2022/09/13 06:53:36;;;;;;;5.30;3.38;;;;;;;;;;5033540;28;20018;-57
2022/09/13 06:56:10;;;;;;;5.13;3.35;;;;;;;;;;5029534;28;20115;-57
2022/09/13 06:58:37;;;;;;;4.47;3.25;;;;;;;;;;5029700;28;20506;-58
2022/09/13 07:01:11;;;;;;;6.03;3.78;;;;;;;;;;5029483;28;20029;-59
2022/09/13 07:03:39;;;;;;;6.45;3.78;;;;;;;;;;5029882;28;20022;-59
2022/09/13 07:06:12;;;;;;;8.18;3.83;;;;;;;;;;5025637;28;20026;-59
2022/09/13 07:08:39;;;;;;;5.97;3.60;;;;;;;;;;5025826;28;20021;-58
2022/09/13 07:11:05;;;;;;;4.32;2.88;;;;;;;;;;5028907;28;20029;-58
2022/09/13 07:13:31;;;;;;;5.72;3.10;;;;;;;;;;5028540;28;20035;-58
2022/09/13 07:15:56;;;;;;;4.03;2.83;;;;;;;;;;5027498;28;20029;-58
2022/09/13 07:18:21;;;;;;;4.78;3.08;;;;;;;;;;5031601;28;20025;-58
2022/09/13 07:20:47;;;;;;;4.18;2.92;;;;;;;;;;5028828;28;20054;-58
2022/09/13 07:23:12;;;;;;;5.28;4.18;;;;;;;;;;5029154;28;20060;-59
2022/09/13 07:25:38;;;;;;;8.55;4.32;;;;;;;;;;5028889;28;20083;-58
2022/09/13 07:28:03;;;;;;;6.18;3.30;;;;;;;;;;5029888;28;20017;-58
2022/09/13 07:30:29;;;;;;;5.10;3.40;;;;;;;;;;5029247;28;20033;-58
2022/09/13 07:32:54;;;;;;;4.55;2.95;;;;;;;;;;5028295;28;20060;-58
2022/09/13 07:35:20;;;;;;;4.13;3.20;;;;;;;;;;5029405;28;20053;-58
2022/09/13 07:37:45;;;;;;;5.30;3.20;;;;;;;;;;5028805;28;20529;-58
2022/09/13 07:40:11;;;;;;;4.70;3.63;;;;;;;;;;5030029;28;20021;-58
2022/09/13 07:42:36;;;;;;;4.72;3.13;;;;;;;;;;5028451;28;20022;-58
2022/09/13 07:45:02;;;;;;;4.68;3.00;;;;;;;;;;5029539;28;20513;-59
2022/09/13 07:47:28;;;;;;;5.18;2.67;;;;;;;;;;5029561;28;20025;-58
2022/09/13 07:49:53;;;;;;;6.50;3.00;;;;;;;;;;5028730;28;20075;-59
2022/09/13 07:52:18;;;;;;;4.05;3.40;;;;;;;;;;5028296;28;20119;-59
2022/09/13 07:54:44;;;;;;;5.35;2.85;;;;;;;;;;5028407;28;20033;-58
2022/09/13 07:57:09;;;;;;;4.50;2.95;;;;;;;;;;5027869;28;20033;-59
2022/09/13 07:59:34;;;;;;;3.28;2.90;;;;;;;;;;5030072;28;20029;-59
2022/09/13 08:02:00;;;;;;;4.07;3.17;;;;;;;;;;5029161;28;20060;-59
2022/09/13 08:04:25;;;;;;;4.97;3.13;;;;;;;;;;5029939;28;20025;-59
2022/09/13 08:06:51;;;;;;;4.95;3.47;;;;;;;;;;5028343;28;20026;-58
2022/09/13 08:09:17;;;;;;;6.78;3.85;;;;;;;;;;5029229;28;20052;-58
2022/09/13 08:11:45;;;;;;;4.13;3.22;;;;;;;;;;5028455;28;20029;-58
2022/09/13 08:14:13;;;;;;;5.13;3.15;;;;;;;;;;5028647;28;20383;-59
2022/09/13 08:16:39;;;;;;;5.68;3.03;;;;;;;;;;5027344;28;20061;-59
2022/09/13 08:19:06;;;;;;;6.28;3.15;;;;;;;;;;5026777;28;20060;-59
2022/09/13 08:21:43;;;;;;;7.18;3.90;;;;;;;;;;5032327;28;20029;-59
2022/09/13 08:24:14;;;;;;;7.13;3.80;;;;;;;;;;5027128;28;20032;-59
2022/09/13 08:26:39;;;;;;;6.82;4.20;;;;;;;;;;5032847;28;20033;-59
2022/09/13 08:29:05;;;;;;;5.57;3.67;;;;;;;;;;5033215;28;20040;-59
2022/09/13 08:31:32;;;;;;;6.03;3.58;;;;;;;;;;5031271;28;20490;-59
2022/09/13 08:33:58;;;;;;;4.55;3.38;;;;;;;;;;5032749;28;20506;-58
2022/09/13 08:36:25;;;;;;;5.93;3.55;;;;;;;;;;5031922;28;20076;-58
2022/09/13 08:38:53;;;;;;;5.50;3.20;;;;;;;;;;5032208;28;20037;-57
2022/09/13 08:41:47;;;;;;;3.67;2.80;;;;;;;;;;5030994;28;20029;-58
2022/09/13 08:44:22;;;;;;;5.40;2.70;;;;;;;;;;5032641;28;20268;-57
2022/09/13 08:46:48;;;;;;;3.10;2.47;;;;;;;;;;5030714;28;20088;-58
2022/09/13 08:49:20;;;;;;;3.28;2.53;;;;;;;;;;5032736;28;20472;-58
2022/09/13 08:51:53;;;;;;;3.80;2.50;;;;;;;;;;5030374;28;20044;-58
2022/09/13 08:54:19;;;;;;;3.63;2.70;;;;;;;;;;5029393;28;20433;-59
2022/09/13 08:57:03;;;;;;;4.05;2.55;;;;;;;;;;5032995;28;20030;-57
2022/09/13 08:59:52;;;;;;;3.92;2.35;;;;;;;;;;5028443;28;20025;-58
2022/09/13 09:02:36;;;;;;;;;;;;;;;;;;5033151;28;20026;-58
2022/09/13 09:05:18;;;;;;;4.97;2.40;;;;;;;;;;5032025;28;19921;-58
2022/09/13 09:08:09;;;;;;;4.30;2.55;;;;;;;;;;5032373;28;20040;-58
2022/09/13 09:10:47;;;;;;;4.50;3.55;;;;;;;;;;5028997;28;20033;-58
2022/09/13 09:13:21;;;;;;;5.78;2.90;;;;;;;;;;5025325;28;20475;-58
2022/09/13 09:15:54;;;;;;;6.90;2.75;;;;;;;;;;5031805;28;20116;-58
2022/09/13 09:18:34;;;;;;;5.47;2.75;;;;;;;;;;5031860;28;20197;-58
2022/09/13 09:21:02;;;;;;;2.97;2.35;;;;;;;;;;5023965;28;20518;-58
2022/09/13 09:23:40;;;;;;;3.10;2.50;;;;;;;;;;5030941;28;20026;-58
2022/09/13 09:26:16;;;;;;;4.90;2.20;;;;;;;;;;5032110;28;20211;-58
2022/09/13 09:29:03;;;;;;;6.53;2.70;;;;;;;;;;5032027;28;20447;-57
2022/09/13 09:31:28;;;;;;;5.45;2.10;;;;;;;;;;5022806;28;20045;-59
2022/09/13 09:34:11;;;;;;;4.32;2.47;;;;;;;;;;5027990;28;20036;-59
2022/09/13 09:36:50;;;;;;;4.18;2.20;;;;;;;;;;5030413;28;20091;-59
2022/09/13 09:39:16;;;;;;;3.17;2.20;;;;;;;;;;5026931;28;20526;-59
2022/09/13 09:41:43;;;;;;;2.85;2.40;;;;;;;;;;5030705;28;20037;-59
2022/09/13 09:44:21;;;;;;;2.88;2.20;;;;;;;;;;5031314;28;20037;-59
2022/09/13 09:46:50;;;;;;;3.10;2.03;;;;;;;;;;5030798;28;20025;-59
2022/09/13 09:52:09;;;;;;;5.10;2.33;;;;;;;;;;5027426;28;20079;-58
2022/09/13 09:54:36;;;;;;;4.07;2.58;;;;;;;;;;5035799;28;20418;-58
2022/09/13 09:57:02;;;;;;;3.03;2.50;;;;;;;;;;5031556;28;20042;-58
2022/09/13 09:59:32;;;;;;;5.05;2.40;;;;;;;;;;5037038;28;20029;-58
2022/09/13 10:02:13;;;;;;;5.03;2.22;;;;;;;;;;5030360;28;20021;-56
2022/09/13 10:04:39;;;;;;;4.47;2.30;;;;;;;;;;5031465;28;20380;-57
2022/09/13 10:07:37;;;;;;;2.38;2.17;;;;;;;;;;5030364;28;20029;-57
2022/09/13 10:10:22;;;;;;;3.55;2.10;;;;;;;;;;4990582;28;20567;-58
2022/09/13 10:12:54;;;;;;;4.07;2.42;;;;;;;;;;5030188;28;20448;-58
2022/09/13 10:15:26;;;;;;;5.00;2.28;;;;;;;;;;5029613;28;20041;-58
2022/09/13 10:18:15;;;;;;;2.40;2.20;;;;;;;;;;5031204;28;20029;-58
2022/09/13 10:20:41;;;;;;;4.00;2.20;;;;;;;;;;5030590;28;20025;-58
2022/09/13 10:23:19;;;;;;;3.67;2.30;;;;;;;;;;5030190;28;20244;-58
2022/09/13 10:26:03;;;;;;;4.60;2.30;;;;;;;;;;5029193;28;20033;-58
2022/09/13 10:28:31;;;;;;;3.95;1.90;;;;;;;;;;5029940;28;20034;-57
2022/09/13 10:31:09;;;;;;;3.30;2.28;;;;;;;;;;5030471;28;20022;-58
2022/09/13 10:33:51;;;;;;;4.00;2.40;;;;;;;;;;5029999;28;20036;-57
2022/09/13 10:36:16;;;;;;;10.98;2.60;;;;;;;;;;5024437;28;20499;-59
2022/09/13 10:39:03;;;;;;;3.95;2.40;;;;;;;;;;5029387;28;20082;-58
2022/09/13 10:41:32;;;;;;;5.35;2.58;;;;;;;;;;5027658;28;20112;-58
2022/09/13 10:43:59;;;;;;;2.97;2.17;;;;;;;;;;5029900;28;20112;-59
2022/09/13 10:46:28;;;;;;;5.97;2.25;;;;;;;;;;5028876;28;20068;-58
2022/09/13 10:48:57;;;;;;;2.83;2.50;;;;;;;;;;5028060;28;20025;-57
2022/09/13 10:51:25;;;;;;;5.70;2.55;;;;;;;;;;5030286;28;20028;-58
2022/09/13 10:54:14;;;;;;;5.47;2.30;;;;;;;;;;5030254;28;20044;-54
2022/09/13 10:56:42;;;;;;;3.13;2.38;;;;;;;;;;5029461;28;20333;-53
2022/09/13 10:59:28;;;;;;;4.70;2.53;;;;;;;;;;5029180;28;20032;-53
2022/09/13 11:02:27;;;;;;;8.18;2.58;;;;;;;;;;5029412;28;20144;-53
2022/09/13 11:04:53;;;;;;;4.43;2.38;;;;;;;;;;5029426;28;20030;-52
2022/09/13 11:07:42;;;;;;;3.78;2.50;;;;;;;;;;5029823;28;20040;-53
2022/09/13 11:10:13;;;;;;;4.00;2.30;;;;;;;;;;5030509;28;20027;-51
2022/09/13 11:12:54;;;;;;;6.18;2.60;;;;;;;;;;5036742;28;20219;-50
2022/09/13 11:15:19;;;;;;;3.55;2.33;;;;;;;;;;5029991;28;20524;-53
2022/09/13 11:18:09;;;;;;;5.35;2.55;;;;;;;;;;5030037;28;20044;-52
2022/09/13 11:20:54;;;;;;;4.32;2.40;;;;;;;;;;5027027;28;20040;-53
2022/09/13 11:23:54;;;;;;;2.92;2.42;;;;;;;;;;5029314;28;20108;-53
2022/09/13 11:26:58;;;;;;;4.68;2.25;;;;;;;;;;5024185;28;20048;-54
2022/09/13 11:29:45;;;;;;;4.32;2.30;;;;;;;;;;5029338;28;20029;-52
2022/09/13 11:32:16;;;;;;;3.50;1.90;;;;;;;;;;5024401;28;20025;-50
2022/09/13 11:35:03;;;;;;;4.47;1.95;;;;;;;;;;5029372;28;20029;-52
2022/09/13 11:38:02;;;;;;;7.18;2.55;;;;;;;;;;5029469;28;20021;-52
2022/09/13 11:40:54;;;;;;;5.15;1.90;;;;;;;;;;5013211;28;20146;-53
2022/09/13 11:43:38;;;;;;;3.97;2.22;;;;;;;;;;5024554;28;20192;-53
2022/09/13 11:46:22;;;;;;;3.30;2.10;;;;;;;;;;5027093;28;20048;-53
2022/09/13 11:48:50;;;;;;;4.93;2.33;;;;;;;;;;5029716;28;20113;-53
2022/09/13 11:51:24;;;;;;;2.53;2.28;;;;;;;;;;5027920;28;20033;-52
2022/09/13 11:53:59;;;;;;;5.95;2.28;;;;;;;;;;5027305;28;20068;-53
2022/09/13 11:56:39;;;;;;;3.15;2.00;;;;;;;;;;5026945;28;20104;-54
2022/09/13 11:59:26;;;;;;;4.90;2.13;;;;;;;;;;5028787;28;20426;-53
2022/09/13 12:01:58;;;;;;;6.40;2.42;;;;;;;;;;5026731;28;20133;-53
2022/09/13 12:04:31;;;;;;;4.80;1.92;;;;;;;;;;5025121;28;20061;-53
2022/09/13 12:07:02;;;;;;;2.22;1.92;;;;;;;;;;5028591;28;20022;-53
2022/09/13 12:09:35;;;;;;;4.10;1.77;;;;;;;;;;5029394;28;20371;-53
2022/09/13 12:12:09;;;;;;;4.45;1.90;;;;;;;;;;5033484;28;20403;-54
2022/09/13 12:15:12;;;;;;;2.28;1.58;;;;;;;;;;5028223;28;20037;-52
2022/09/13 12:17:52;;;;;;;2.05;1.83;;;;;;;;;;5026078;28;20494;-53
2022/09/13 12:20:34;;;;;;;2.95;1.70;;;;;;;;;;5030345;28;20033;-53
2022/09/13 12:23:03;;;;;;;2.05;1.80;;;;;;;;;;5027940;28;20091;-53
2022/09/13 12:26:09;;;;;;;3.67;2.08;;;;;;;;;;5026161;28;20025;-54
2022/09/13 12:28:50;;;;;;;2.22;1.80;;;;;;;;;;4965438;28;20057;-53
2022/09/13 12:31:20;;;;;;;3.35;1.90;;;;;;;;;;5020631;28;20040;-58
2022/09/13 12:33:47;;;;;;;3.00;1.90;;;;;;;;;;5026758;28;20029;-59
2022/09/13 12:36:49;;;;;;;3.55;2.03;;;;;;;;;;5027499;28;20048;-58
2022/09/13 12:39:39;;;;;;;4.70;1.65;;;;;;;;;;5024879;28;20041;-58
2022/09/13 12:42:30;;;;;;;4.07;1.60;;;;;;;;;;5028988;28;20033;-58
2022/09/13 12:45:07;;;;;;;3.17;1.60;;;;;;;;;;5027439;28;20438;-58
2022/09/13 12:47:44;;;;;;;3.17;1.70;;;;;;;;;;5024382;28;20030;-58
2022/09/13 12:50:28;;;;;;;3.38;1.60;;;;;;;;;;5028742;28;20538;-59
2022/09/13 12:53:11;;;;;;;4.15;1.75;;;;;;;;;;5026793;28;20094;-60
2022/09/13 12:55:46;;;;;;;2.80;1.50;;;;;;;;;;5025035;28;20148;-59
2022/09/13 12:59:02;;;;;;;2.20;1.40;;;;;;;;;;5028201;28;20025;-59
2022/09/13 13:01:29;;;;;;;3.08;1.58;;;;;;;;;;5002296;28;20120;-60
2022/09/13 13:03:55;;;;;;;4.70;1.75;;;;;;;;;;5028234;28;20116;-58
2022/09/13 13:06:41;;;;;;;2.58;1.80;;;;;;;;;;5029383;28;20120;-58
2022/09/13 13:09:41;;;;;;;2.70;1.80;;;;;;;;;;5030268;28;20446;-58
2022/09/13 13:12:23;;;;;;;4.93;2.10;;;;;;;;;;5029340;28;20285;-58
2022/09/13 13:14:52;;;;;;;4.00;2.40;;;;;;;;;;5031488;28;20403;-59
2022/09/13 13:17:39;;;;;;;10.90;2.63;;;;;;;;;;5028178;28;20025;-58
2022/09/13 13:20:42;;;;;;;4.07;1.60;;;;;;;;;;5030081;28;20033;-58
2022/09/13 13:23:18;;;;;;;3.33;1.52;;;;;;;;;;5030897;28;20495;-59
2022/09/13 13:26:10;;;;;;;2.33;1.70;;;;;;;;;;5031181;28;20033;-59
2022/09/13 13:28:42;;;;;;;3.05;1.67;;;;;;;;;;5030678;28;20037;-59
2022/09/13 13:31:30;;;;;;;2.25;1.50;;;;;;;;;;5033964;28;20546;-59
2022/09/13 13:33:57;;;;;;;3.22;1.55;;;;;;;;;;5031035;28;20025;-59
2022/09/13 13:36:57;;;;;;;2.78;1.60;;;;;;;;;;5031127;28;20025;-59
2022/09/13 13:39:25;;;;;;;1.98;1.40;;;;;;;;;;5017827;28;20038;-59
2022/09/13 13:42:12;;;;;;;2.13;1.67;;;;;;;;;;5030324;28;20021;-59
2022/09/13 13:44:40;;;;;;;2.20;1.50;;;;;;;;;;5028179;28;20041;-59
2022/09/13 13:47:06;;;;;;;3.10;1.90;;;;;;;;;;5031427;28;20021;-59
2022/09/13 13:49:40;;;;;;;4.78;1.63;;;;;;;;;;5035568;28;20021;-59
2022/09/13 13:52:08;;;;;;;4.32;1.65;;;;;;;;;;5027337;28;20502;-59
2022/09/13 13:55:16;;;;;;;1.67;1.58;;;;;;;;;;5031337;28;20121;-59
2022/09/13 13:57:49;;;;;;;2.58;1.58;;;;;;;;;;5028776;28;20041;-59
2022/09/13 14:00:21;;;;;;;4.82;1.60;;;;;;;;;;5025478;28;20029;-59
2022/09/13 14:02:49;;;;;;;3.15;1.65;;;;;;;;;;5029924;28;20025;-59
2022/09/13 14:05:24;;;;;;;1.40;1.30;;;;;;;;;;5029974;28;20052;-59
2022/09/13 14:08:04;;;;;;;2.65;1.80;;;;;;;;;;5032125;28;20144;-59
2022/09/13 14:10:42;;;;;;;4.05;1.67;;;;;;;;;;5031306;28;20039;-59
2022/09/13 14:13:08;;;;;;;4.18;1.77;;;;;;;;;;5030498;28;20108;-59
2022/09/13 14:16:04;;;;;;;3.53;1.50;;;;;;;;;;5031684;28;20120;-59
2022/09/13 14:18:50;;;;;;;2.50;1.90;;;;;;;;;;5027475;28;20029;-59
2022/09/13 14:21:27;;;;;;;5.22;2.25;;;;;;;;;;5030494;28;20031;-59
2022/09/13 14:24:15;;;;;;;6.53;1.80;;;;;;;;;;5029732;28;20029;-59
2022/09/13 14:26:41;;;;;;;3.00;1.90;;;;;;;;;;5030006;28;20025;-60
2022/09/13 14:29:07;;;;;;;6.93;1.75;;;;;;;;;;5030482;28;20025;-59
2022/09/13 14:31:33;;;;;;;5.38;2.05;;;;;;;;;;5029944;28;20384;-59
2022/09/13 14:33:59;;;;;;;4.05;1.60;;;;;;;;;;5024573;28;20021;-59
2022/09/13 14:36:26;;;;;;;7.57;2.03;;;;;;;;;;5029728;28;20095;-59
2022/09/13 14:38:57;;;;;;;5.35;2.00;;;;;;;;;;5028885;28;20056;-59
2022/09/13 14:41:34;;;;;;;7.50;2.20;;;;;;;;;;5029911;28;20037;-59
2022/09/13 14:44:23;;;;;;;4.03;1.88;;;;;;;;;;5030076;28;20029;-59
2022/09/13 14:47:12;;;;;;;2.55;1.60;;;;;;;;;;5040029;28;20407;-59
2022/09/13 14:49:43;;;;;;;3.50;1.65;;;;;;;;;;5030825;28;20525;-59
2022/09/13 14:52:17;;;;;;;5.18;1.73;;;;;;;;;;5029254;28;20399;-59
2022/09/13 14:54:49;;;;;;;2.50;1.77;;;;;;;;;;5029097;28;20025;-59
2022/09/13 14:57:36;;;;;;;4.38;1.80;;;;;;;;;;5030277;28;20403;-59
2022/09/13 15:00:14;;;;;;;3.28;1.77;;;;;;;;;;5029349;28;20022;-59
2022/09/13 15:02:53;;;;;;;3.55;1.65;;;;;;;;;;5026408;28;20037;-59
2022/09/13 15:05:22;;;;;;;3.17;1.95;;;;;;;;;;5026457;28;20036;-59
2022/09/13 15:07:48;;;;;;;5.55;1.95;;;;;;;;;;5029124;28;20029;-59
2022/09/13 15:10:16;;;;;;;3.22;1.77;;;;;;;;;;5029857;28;20132;-59
2022/09/13 15:12:52;;;;;;;4.40;1.73;;;;;;;;;;5033570;28;20021;-59
2022/09/13 15:15:18;;;;;;;5.18;2.83;;;;;;;;;;5026930;28;20042;-59
2022/09/13 15:18:03;;;;;;;7.07;2.30;;;;;;;;;;5034618;28;20029;-59
2022/09/13 15:20:45;;;;;;;4.13;2.30;;;;;;;;;;5028063;28;20482;-59
2022/09/13 15:23:34;;;;;;;6.47;1.70;;;;;;;;;;5031966;28;20061;-59
2022/09/13 15:26:06;;;;;;;7.38;2.10;;;;;;;;;;5033314;28;20029;-59
2022/09/13 15:28:48;;;;;;;4.00;1.83;;;;;;;;;;5038576;28;20029;-59